createdAt,value
2019-02-20T00:00:58.133Z,101342.45
2019-02-20T00:03:28.610Z,101340.16
2019-02-20T00:05:58.799Z,101336.02
2019-02-20T00:08:29.080Z,101329.23
2019-02-20T00:10:59.285Z,101325.48
2019-02-20T00:13:29.519Z,101324.01
2019-02-20T00:15:59.626Z,101322.33
2019-02-20T00:18:29.861Z,101319.28
2019-02-20T00:21:00.069Z,101318.80
2019-02-20T00:23:30.304Z,101316.13
2019-02-20T00:26:00.435Z,101313.20
2019-02-20T00:28:30.628Z,101306.27
2019-02-20T00:31:00.870Z,101302.03
2019-02-20T00:33:31.093Z,101290.75
2019-02-20T00:36:01.295Z,101297.31
2019-02-20T00:38:32.403Z,101301.54
2019-02-20T00:41:02.624Z,101286.86
2019-02-20T00:43:32.983Z,101292.06
2019-02-20T00:46:19.804Z,101287.36
2019-02-20T00:48:54.594Z,101288.20
2019-02-20T00:51:29.064Z,101291.72
2019-02-20T00:54:00.891Z,101284.92
2019-02-20T00:56:31.126Z,101275.56
2019-02-20T00:59:01.402Z,101271.82
2019-02-20T01:01:31.618Z,101269.73
2019-02-20T01:04:01.892Z,101256.87
2019-02-20T01:06:32.032Z,101256.97
2019-02-20T01:09:02.627Z,101255.41
2019-02-20T01:11:32.752Z,101255.41
2019-02-20T01:14:02.995Z,101239.38
2019-02-20T01:16:33.199Z,101241.81
2019-02-20T01:19:03.479Z,101244.72
2019-02-20T01:21:33.682Z,101225.21
2019-02-20T01:24:03.960Z,101222.66
2019-02-20T01:26:34.171Z,101218.63
2019-02-20T01:29:04.530Z,101217.08
2019-02-20T01:31:34.739Z,101212.94
2019-02-20T01:34:05.014Z,101206.27
2019-02-20T01:36:35.233Z,101212.54
2019-02-20T01:39:06.673Z,101200.25
2019-02-20T01:41:36.886Z,101192.41
2019-02-20T01:44:07.228Z,101188.14
2019-02-20T01:46:37.428Z,101182.23
2019-02-20T01:49:07.696Z,101174.70
2019-02-20T01:51:37.817Z,101178.94
2019-02-20T01:54:08.023Z,101169.37
2019-02-20T01:56:38.142Z,101174.00
2019-02-20T01:59:08.380Z,101167.83
2019-02-20T02:01:38.592Z,101168.42
2019-02-20T02:04:08.871Z,101171.45
2019-02-20T02:06:39.121Z,101164.78
2019-02-20T02:09:09.392Z,101165.28
2019-02-20T02:11:39.523Z,101161.52
2019-02-20T02:14:09.783Z,101170.86
2019-02-20T02:16:40.008Z,101161.30
2019-02-20T02:19:10.185Z,101169.18
2019-02-20T02:21:40.387Z,101157.17
2019-02-20T02:24:10.603Z,101163.12
2019-02-20T02:26:40.799Z,101168.94
2019-02-20T02:29:10.920Z,101171.33
2019-02-20T02:31:41.126Z,101169.64
2019-02-20T02:34:11.363Z,101167.12
2019-02-20T02:36:41.511Z,101165.66
2019-02-20T02:39:12.550Z,101163.95
2019-02-20T02:41:44.776Z,101159.23
2019-02-20T02:44:14.652Z,101165.25
2019-02-20T02:46:44.852Z,101158.75
2019-02-20T02:49:15.102Z,101155.34
2019-02-20T02:51:45.310Z,101150.11
2019-02-20T02:54:15.595Z,101148.30
2019-02-20T02:56:45.793Z,101153.03
2019-02-20T02:59:16.061Z,101134.95
2019-02-20T03:01:46.271Z,101147.70
2019-02-20T03:04:16.528Z,101139.55
2019-02-20T03:06:46.737Z,101136.61
2019-02-20T03:09:16.993Z,101136.41
2019-02-20T03:11:47.184Z,101137.02
2019-02-20T03:14:17.455Z,101133.39
2019-02-20T03:16:47.604Z,101119.59
2019-02-20T03:19:17.883Z,101122.50
2019-02-20T03:21:48.112Z,101113.90
2019-02-20T03:24:18.370Z,101114.61
2019-02-20T03:26:48.620Z,101111.48
2019-02-20T03:29:18.877Z,101107.11
2019-02-20T03:31:49.109Z,101109.91
2019-02-20T03:34:19.337Z,101107.70
2019-02-20T03:36:49.566Z,101107.59
2019-02-20T03:39:20.790Z,101101.77
2019-02-20T03:41:50.993Z,101089.78
2019-02-20T03:44:21.366Z,101087.70
2019-02-20T03:46:51.565Z,101084.80
2019-02-20T03:49:21.834Z,101080.45
2019-02-20T03:51:52.045Z,101081.29
2019-02-20T03:54:22.300Z,101075.61
2019-02-20T03:56:52.417Z,101068.23
2019-02-20T03:59:22.656Z,101070.64
2019-02-20T04:01:52.867Z,101067.86
2019-02-20T04:04:22.980Z,101068.34
2019-02-20T04:06:53.108Z,101066.40
2019-02-20T04:09:23.363Z,101062.05
2019-02-20T04:11:53.576Z,101069.91
2019-02-20T04:14:23.870Z,101071.37
2019-02-20T04:16:54.056Z,101061.80
2019-02-20T04:19:24.319Z,101054.42
2019-02-20T04:21:54.522Z,101046.42
2019-02-20T04:24:24.799Z,101045.31
2019-02-20T04:26:55.007Z,101036.11
2019-02-20T04:29:25.199Z,101035.14
2019-02-20T04:31:55.337Z,101033.31
2019-02-20T04:34:25.547Z,101041.32
2019-02-20T04:36:55.751Z,101043.98
2019-02-20T04:39:26.852Z,101031.27
2019-02-20T04:41:57.046Z,101034.90
2019-02-20T04:44:27.324Z,101029.64
2019-02-20T04:46:57.514Z,101026.29
2019-02-20T04:49:27.757Z,101036.95
2019-02-20T04:51:57.985Z,101035.72
2019-02-20T04:54:28.276Z,101040.81
2019-02-20T04:56:58.502Z,101041.53
2019-02-20T04:59:28.787Z,101036.78
2019-02-20T05:01:58.981Z,101039.23
2019-02-20T05:04:29.265Z,101035.08
2019-02-20T05:06:59.483Z,101034.13
2019-02-20T05:09:29.767Z,101034.50
2019-02-20T05:12:00.004Z,101026.34
2019-02-20T05:14:30.284Z,101023.91
2019-02-20T05:17:00.494Z,101024.75
2019-02-20T05:19:30.751Z,101011.37
2019-02-20T05:22:02.264Z,101014.16
2019-02-20T05:24:32.526Z,101013.28
2019-02-20T05:27:02.753Z,101013.03
2019-02-20T05:29:33.005Z,101006.19
2019-02-20T05:32:03.261Z,101008.35
2019-02-20T05:34:33.443Z,101018.27
2019-02-20T05:37:03.665Z,101014.84
2019-02-20T05:39:34.002Z,101012.41
2019-02-20T05:42:04.225Z,101003.06
2019-02-20T05:44:34.613Z,101006.67
2019-02-20T05:47:04.788Z,101008.78
2019-02-20T05:49:35.152Z,101008.15
2019-02-20T05:52:05.364Z,101001.78
2019-02-20T05:54:35.658Z,101006.05
2019-02-20T05:57:05.881Z,101002.74
2019-02-20T05:59:36.145Z,100997.64
2019-02-20T06:02:06.347Z,100994.92
2019-02-20T06:04:36.560Z,100991.39
2019-02-20T06:07:07.196Z,100989.97
2019-02-20T06:09:37.457Z,100987.38
2019-02-20T06:12:07.626Z,100994.23
2019-02-20T06:14:37.877Z,100985.42
2019-02-20T06:17:08.085Z,100981.52
2019-02-20T06:19:38.333Z,100979.44
2019-02-20T06:22:08.584Z,100976.63
2019-02-20T06:24:44.123Z,100963.86
2019-02-20T06:27:10.598Z,100971.31
2019-02-20T06:29:40.854Z,100968.37
2019-02-20T06:32:11.062Z,100965.75
2019-02-20T06:34:41.325Z,100956.04
2019-02-20T06:37:11.391Z,100964.72
2019-02-20T06:39:42.520Z,100958.17
2019-02-20T06:42:12.748Z,100952.84
2019-02-20T06:44:43.023Z,100950.11
2019-02-20T06:47:13.131Z,100950.45
2019-02-20T06:49:43.403Z,100933.95
2019-02-20T06:52:13.699Z,100939.14
2019-02-20T06:54:53.293Z,100937.03
2019-02-20T06:57:16.066Z,100926.41
2019-02-20T06:59:46.302Z,100931.95
2019-02-20T07:02:16.531Z,100923.44
2019-02-20T07:05:25.036Z,100922.84
2019-02-20T07:08:15.356Z,100925.98
2019-02-20T07:11:00.822Z,100922.19
2019-02-20T07:13:40.280Z,100918.89
2019-02-20T07:16:16.875Z,100899.84
2019-02-20T07:18:53.502Z,100900.81
2019-02-20T07:21:35.879Z,100894.89
2019-02-20T07:24:13.197Z,100896.70
2019-02-20T07:27:07.551Z,100904.57
2019-02-20T07:30:01.466Z,100915.98
2019-02-20T07:32:31.850Z,100907.27
2019-02-20T07:35:02.065Z,100894.77
2019-02-20T07:37:32.404Z,100887.84
2019-02-20T07:40:04.079Z,100882.89
2019-02-20T07:42:34.352Z,100891.57
2019-02-20T07:45:06.665Z,100885.66
2019-02-20T07:47:36.930Z,100895.48
2019-02-20T07:50:09.646Z,100901.96
2019-02-20T07:52:39.963Z,100892.52
2019-02-20T07:55:13.331Z,100896.22
2019-02-20T07:57:42.413Z,100897.15
2019-02-20T08:00:13.853Z,100886.61
2019-02-20T08:02:44.097Z,100894.47
2019-02-20T08:05:14.945Z,100879.80
2019-02-20T08:07:45.221Z,100887.72
2019-02-20T08:10:16.352Z,100879.72
2019-02-20T08:12:46.581Z,100880.00
2019-02-20T08:15:16.819Z,100876.85
2019-02-20T08:17:46.972Z,100873.24
2019-02-20T08:20:17.367Z,100868.19
2019-02-20T08:22:50.244Z,100862.74
2019-02-20T08:25:23.118Z,100873.19
2019-02-20T08:27:52.465Z,100869.36
2019-02-20T08:30:22.678Z,100862.64
2019-02-20T08:32:56.156Z,100866.47
2019-02-20T08:35:26.389Z,100861.96
2019-02-20T08:37:56.656Z,100858.61
2019-02-20T08:40:28.414Z,100858.84
2019-02-20T08:43:00.028Z,100851.69
2019-02-20T08:45:30.547Z,100848.14
2019-02-20T08:48:00.772Z,100844.45
2019-02-20T08:50:30.978Z,100847.89
2019-02-20T08:53:01.285Z,100850.70
2019-02-20T08:55:32.692Z,100845.20
2019-02-20T08:58:05.950Z,100843.73
2019-02-20T09:00:36.805Z,100842.38
2019-02-20T09:03:09.493Z,100836.52
2019-02-20T09:05:39.851Z,100836.17
2019-02-20T09:08:10.699Z,100835.36
2019-02-20T09:10:40.839Z,100840.96
2019-02-20T09:13:11.178Z,100834.41
2019-02-20T09:15:41.629Z,100833.27
2019-02-20T09:18:14.605Z,100833.95
2019-02-20T09:20:46.090Z,100831.91
2019-02-20T09:23:16.750Z,100837.78
2019-02-20T09:25:47.110Z,100830.36
2019-02-20T09:28:37.160Z,100827.84
2019-02-20T09:31:07.764Z,100830.22
2019-02-20T09:33:44.684Z,100822.14
2019-02-20T09:36:15.079Z,100819.47
2019-02-20T09:38:45.699Z,100817.97
2019-02-20T09:41:17.046Z,100819.66
2019-02-20T09:43:48.039Z,100812.77
2019-02-20T09:46:18.473Z,100811.11
2019-02-20T09:48:49.121Z,100802.53
2019-02-20T09:51:21.020Z,100801.88
2019-02-20T09:53:52.288Z,100795.64
2019-02-20T09:56:24.371Z,100799.52
2019-02-20T09:58:55.589Z,100795.49
2019-02-20T10:01:26.144Z,100779.49
2019-02-20T10:03:56.596Z,100776.11
2019-02-20T10:06:26.952Z,100774.09
2019-02-20T10:08:58.977Z,100769.05
2019-02-20T10:11:29.283Z,100770.24
2019-02-20T10:14:00.693Z,100767.86
2019-02-20T10:16:30.967Z,100771.07
2019-02-20T10:19:02.882Z,100767.52
2019-02-20T10:21:33.540Z,100765.83
2019-02-20T10:24:06.012Z,100758.75
2019-02-20T10:26:38.043Z,100753.04
2019-02-20T10:29:09.386Z,100749.85
2019-02-20T10:31:40.205Z,100737.88
2019-02-20T10:34:14.510Z,100737.35
2019-02-20T10:36:47.465Z,100740.71
2019-02-20T10:39:18.439Z,100736.38
2019-02-20T10:41:49.365Z,100728.75
2019-02-20T10:44:21.203Z,100721.95
2019-02-20T10:46:51.518Z,100721.81
2019-02-20T10:49:21.766Z,100721.09
2019-02-20T10:51:54.277Z,100720.09
2019-02-20T10:54:24.529Z,100712.61
2019-02-20T10:56:56.689Z,100708.26
2019-02-20T10:59:27.983Z,100698.95
2019-02-20T11:01:58.607Z,100692.33
2019-02-20T11:04:30.822Z,100695.38
2019-02-20T11:07:02.316Z,100690.63
2019-02-20T11:09:32.587Z,100687.13
2019-02-20T11:12:02.931Z,100687.27
2019-02-20T11:14:33.194Z,100687.87
2019-02-20T11:17:03.401Z,100685.68
2019-02-20T11:19:33.590Z,100667.73
2019-02-20T11:22:05.379Z,100673.83
2019-02-20T11:24:35.822Z,100663.21
2019-02-20T11:27:06.097Z,100668.02
2019-02-20T11:29:37.906Z,100660.44
2019-02-20T11:32:08.138Z,100665.56
2019-02-20T11:34:38.445Z,100667.75
2019-02-20T11:37:08.637Z,100653.18
2019-02-20T11:39:38.943Z,100651.73
2019-02-20T11:42:12.331Z,100653.59
2019-02-20T11:44:42.576Z,100649.92
2019-02-20T11:47:15.026Z,100651.92
2019-02-20T11:49:45.294Z,100652.34
2019-02-20T11:52:15.622Z,100650.59
2019-02-20T11:54:46.060Z,100652.02
2019-02-20T11:57:16.310Z,100649.59
2019-02-20T12:01:50.090Z,100644.61
2019-02-20T12:04:20.309Z,100640.72
2019-02-20T12:06:50.580Z,100642.37
2019-02-20T12:09:20.795Z,100644.19
2019-02-20T12:11:51.042Z,100639.25
2019-02-20T12:14:24.372Z,100635.69
2019-02-20T12:16:53.323Z,100623.32
2019-02-20T12:19:23.718Z,100625.38
2019-02-20T12:21:53.927Z,100613.59
2019-02-20T12:24:24.253Z,100604.51
2019-02-20T12:26:54.617Z,100593.83
2019-02-20T12:29:24.848Z,100609.23
2019-02-20T12:31:55.172Z,100599.67
2019-02-20T12:34:25.441Z,100592.25
2019-02-20T12:36:55.606Z,100594.77
2019-02-20T12:39:27.663Z,100588.30
2019-02-20T12:41:59.578Z,100584.55
2019-02-20T12:44:31.967Z,100582.63
2019-02-20T12:47:02.230Z,100585.74
2019-02-20T12:49:32.390Z,100575.80
2019-02-20T12:52:02.651Z,100581.89
2019-02-20T12:54:33.202Z,100580.15
2019-02-20T12:57:10.486Z,100579.70
2019-02-20T12:59:40.596Z,100582.87
2019-02-20T13:02:10.975Z,100578.16
2019-02-20T13:04:41.383Z,100581.16
2019-02-20T13:07:11.603Z,100586.57
2019-02-20T13:09:41.750Z,100588.34
2019-02-20T13:12:13.097Z,100586.05
2019-02-20T13:14:43.229Z,100585.67
2019-02-20T13:17:13.480Z,100584.89
2019-02-20T13:19:43.706Z,100586.31
2019-02-20T13:22:13.945Z,100585.78
2019-02-20T13:24:44.291Z,100588.27
2019-02-20T13:27:22.522Z,100578.63
2019-02-20T13:29:46.375Z,100586.54
2019-02-20T13:32:16.741Z,100579.30
2019-02-20T13:34:46.881Z,100577.88
2019-02-20T13:37:17.225Z,100578.88
2019-02-20T13:39:47.430Z,100579.06
2019-02-20T13:42:18.332Z,100570.06
2019-02-20T13:44:49.419Z,100582.64
2019-02-20T13:47:19.682Z,100576.07
2019-02-20T13:49:50.038Z,100580.38
2019-02-20T13:52:21.138Z,100578.44
2019-02-20T13:54:54.336Z,100570.48
2019-02-20T13:57:24.552Z,100573.97
2019-02-20T13:59:54.874Z,100569.65
2019-02-20T14:02:25.108Z,100572.23
2019-02-20T14:04:55.314Z,100562.30
2019-02-20T14:07:28.564Z,100561.50
2019-02-20T14:09:59.204Z,100558.98
2019-02-20T14:12:29.433Z,100551.07
2019-02-20T14:15:04.054Z,100550.89
2019-02-20T14:17:34.293Z,100545.70
2019-02-20T14:20:06.723Z,100542.52
2019-02-20T14:22:37.276Z,100548.89
2019-02-20T14:25:09.541Z,100549.16
2019-02-20T14:27:40.777Z,100534.34
2019-02-20T14:30:12.033Z,100537.04
2019-02-20T14:32:42.236Z,100538.84
2019-02-20T14:35:15.046Z,100523.79
2019-02-20T14:37:45.400Z,100523.90
2019-02-20T14:40:15.809Z,100526.34
2019-02-20T14:42:46.035Z,100531.75
2019-02-20T14:45:16.649Z,100528.06
2019-02-20T14:47:46.909Z,100530.92
2019-02-20T14:50:17.384Z,100522.81
2019-02-20T14:52:47.589Z,100524.20
2019-02-20T14:55:17.901Z,100526.30
2019-02-20T14:57:50.949Z,100529.76
2019-02-20T15:00:21.544Z,100520.34
2019-02-20T15:02:51.757Z,100522.73
2019-02-20T15:05:22.396Z,100521.42
2019-02-20T15:07:52.716Z,100521.87
2019-02-20T15:10:23.079Z,100521.69
2019-02-20T15:12:53.292Z,100522.40
2019-02-20T15:15:39.291Z,100519.70
2019-02-20T15:18:11.359Z,100518.98
2019-02-20T15:20:41.833Z,100520.67
2019-02-20T15:23:17.213Z,100517.64
2019-02-20T15:25:56.611Z,100508.75
2019-02-20T15:28:26.805Z,100515.20
2019-02-20T15:30:57.220Z,100515.88
2019-02-20T15:33:28.939Z,100514.70
2019-02-20T15:35:59.121Z,100520.82
2019-02-20T15:38:29.331Z,100522.50
2019-02-20T15:41:00.533Z,100529.30
2019-02-20T15:43:31.183Z,100526.25
2019-02-20T15:46:05.714Z,100534.36
2019-02-20T15:48:35.772Z,100535.06
2019-02-20T15:51:06.208Z,100531.57
2019-02-20T15:53:36.685Z,100535.41
2019-02-20T15:56:07.502Z,100538.41
2019-02-20T15:58:38.261Z,100532.28
2019-02-20T16:01:08.829Z,100533.17
2019-02-20T16:03:41.288Z,100537.22
2019-02-20T16:06:11.871Z,100537.59
2019-02-20T16:08:42.361Z,100530.31
2019-02-20T16:11:12.599Z,100527.63
2019-02-20T16:13:42.861Z,100526.82
2019-02-20T16:16:14.242Z,100529.86
2019-02-20T16:18:44.577Z,100529.59
2019-02-20T16:21:14.890Z,100528.73
2019-02-20T16:23:45.262Z,100532.22
2019-02-20T16:26:17.226Z,100532.19
2019-02-20T16:28:47.435Z,100533.64
2019-02-20T16:31:17.692Z,100528.09
2019-02-20T16:33:47.990Z,100528.87
2019-02-20T16:36:18.356Z,100526.00
2019-02-20T16:38:48.570Z,100536.16
2019-02-20T16:41:18.771Z,100529.25
2019-02-20T16:43:48.965Z,100525.35
2019-02-20T16:46:20.209Z,100524.00
2019-02-20T16:48:50.406Z,100528.48
2019-02-20T16:51:21.205Z,100528.27
2019-02-20T16:53:51.345Z,100525.05
2019-02-20T16:56:21.520Z,100512.72
2019-02-20T16:58:51.691Z,100518.45
2019-02-20T17:01:21.923Z,100519.25
2019-02-20T17:03:52.130Z,100522.59
2019-02-20T17:06:22.654Z,100515.92
2019-02-20T17:08:52.767Z,100521.42
2019-02-20T17:11:25.739Z,100525.29
2019-02-20T17:13:55.871Z,100528.81
2019-02-20T17:16:26.049Z,100533.54
2019-02-20T17:18:56.210Z,100531.92
2019-02-20T17:21:26.459Z,100535.72
2019-02-20T17:23:56.641Z,100529.00
2019-02-20T17:26:26.878Z,100529.89
2019-02-20T17:28:56.996Z,100533.82
2019-02-20T17:31:27.157Z,100540.78
2019-02-20T17:33:57.378Z,100542.16
2019-02-20T17:36:27.544Z,100542.17
2019-02-20T17:38:57.752Z,100543.59
2019-02-20T17:41:28.011Z,100544.01
2019-02-20T17:43:58.143Z,100542.11
2019-02-20T17:46:29.337Z,100543.00
2019-02-20T17:48:59.538Z,100544.93
2019-02-20T17:51:29.877Z,100547.05
2019-02-20T17:54:00.025Z,100538.98
2019-02-20T17:56:30.311Z,100529.42
2019-02-20T17:59:00.504Z,100529.78
2019-02-20T18:01:30.754Z,100528.60
2019-02-20T18:04:00.966Z,100519.45
2019-02-20T18:06:31.217Z,100532.36
2019-02-20T18:09:01.403Z,100541.13
2019-02-20T18:11:31.655Z,100543.77
2019-02-20T18:14:01.888Z,100538.03
2019-02-20T18:16:32.145Z,100545.77
2019-02-20T18:19:02.349Z,100539.39
2019-02-20T18:21:32.666Z,100533.83
2019-02-20T18:24:02.892Z,100539.45
2019-02-20T18:26:33.128Z,100540.12
2019-02-20T18:29:03.331Z,100534.28
2019-02-20T18:31:33.593Z,100538.03
2019-02-20T18:34:03.779Z,100532.58
2019-02-20T18:36:34.058Z,100541.14
2019-02-20T18:39:05.545Z,100542.13
2019-02-20T18:41:35.794Z,100547.57
2019-02-20T18:44:06.027Z,100545.59
2019-02-20T18:46:37.279Z,100550.16
2019-02-20T18:49:07.554Z,100555.67
2019-02-20T18:51:37.910Z,100552.03
2019-02-20T18:54:08.391Z,100555.55
2019-02-20T18:56:38.628Z,100554.31
2019-02-20T18:59:08.887Z,100552.54
2019-02-20T19:01:39.095Z,100551.50
2019-02-20T19:04:09.334Z,100555.41
2019-02-20T19:06:39.604Z,100559.02
2019-02-20T19:09:13.004Z,100558.98
2019-02-20T19:11:54.923Z,100555.29
2019-02-20T19:14:34.099Z,100558.67
2019-02-20T19:17:13.285Z,100555.11
2019-02-20T19:20:04.479Z,100564.37
2019-02-20T19:22:40.576Z,100560.14
2019-02-20T19:25:19.553Z,100569.27
2019-02-20T19:28:02.117Z,100566.41
2019-02-20T19:31:09.153Z,100568.92
2019-02-20T19:33:51.810Z,100567.75
2019-02-20T19:36:59.791Z,100562.06
2019-02-20T19:39:44.982Z,100565.09
2019-02-20T19:42:36.371Z,100564.44
2019-02-20T19:45:12.936Z,100557.88
2019-02-20T19:47:59.244Z,100560.75
2019-02-20T19:50:47.491Z,100555.67
2019-02-20T19:53:33.188Z,100561.09
2019-02-20T19:56:27.983Z,100553.67
2019-02-20T19:59:04.176Z,100547.91
2019-02-20T20:01:40.488Z,100554.98
2019-02-20T20:04:25.470Z,100546.55
2019-02-20T20:07:29.007Z,100536.30
2019-02-20T20:10:20.363Z,100542.13
2019-02-20T20:13:12.944Z,100540.83
2019-02-20T20:15:55.169Z,100534.09
2019-02-20T20:18:31.631Z,100525.66
2019-02-20T20:21:23.277Z,100525.84
2019-02-20T20:24:11.653Z,100530.02
2019-02-20T20:27:05.566Z,100527.13
2019-02-20T20:30:03.516Z,100528.47
2019-02-20T20:33:09.941Z,100524.27
2019-02-20T20:35:58.350Z,100516.88
2019-02-20T20:38:49.696Z,100514.23
2019-02-20T20:41:39.907Z,100513.33
2019-02-20T20:44:28.057Z,100505.77
2019-02-20T20:47:06.117Z,100496.50
2019-02-20T20:50:01.797Z,100491.17
2019-02-20T20:52:47.237Z,100488.83
2019-02-20T20:55:48.044Z,100494.03
2019-02-20T20:58:39.318Z,100491.78
2019-02-20T21:01:21.652Z,100501.56
2019-02-20T21:04:14.275Z,100503.59
2019-02-20T21:07:11.186Z,100499.73
2019-02-20T21:09:52.809Z,100500.95
2019-02-20T21:12:34.990Z,100496.56
2019-02-20T21:15:25.131Z,100497.25
2019-02-20T21:18:13.552Z,100502.47
2019-02-20T21:20:55.585Z,100506.86
2019-02-20T21:23:31.883Z,100494.87
2019-02-20T21:26:13.516Z,100493.75
2019-02-20T21:28:52.560Z,100500.47
2019-02-20T21:31:53.592Z,100507.20
2019-02-20T21:34:41.196Z,100505.16
2019-02-20T21:37:26.063Z,100508.03
2019-02-20T21:39:59.386Z,100505.64
2019-02-20T21:42:50.941Z,100497.92
2019-02-20T21:45:29.957Z,100498.30
2019-02-20T21:48:15.384Z,100492.53
2019-02-20T21:51:01.527Z,100493.22
2019-02-20T21:53:52.884Z,100496.09
2019-02-20T21:56:26.279Z,100490.53
2019-02-20T21:59:02.558Z,100499.61
2019-02-20T22:01:47.757Z,100491.05
2019-02-20T22:04:47.015Z,100491.27
2019-02-20T22:07:51.819Z,100492.23
2019-02-20T22:10:28.218Z,100489.54
2019-02-20T22:13:10.801Z,100484.84
2019-02-20T22:15:59.006Z,100480.16
2019-02-20T22:18:47.295Z,100476.12
2019-02-20T22:21:29.693Z,100474.47
2019-02-20T22:24:14.778Z,100469.91
2019-02-20T22:27:09.268Z,100468.73
2019-02-20T22:29:49.681Z,100475.13
2019-02-20T22:32:32.787Z,100468.13
2019-02-20T22:35:06.138Z,100474.20
2019-02-20T22:37:42.055Z,100465.95
2019-02-20T22:40:15.393Z,100474.03
2019-02-20T22:43:23.395Z,100474.03
2019-02-20T22:45:59.725Z,100474.55
2019-02-20T22:48:35.702Z,100469.66
2019-02-20T22:51:15.691Z,100465.83
2019-02-20T22:54:05.529Z,100456.58
2019-02-20T22:56:53.913Z,100455.41
2019-02-20T23:00:01.359Z,100454.75
2019-02-20T23:02:41.066Z,100462.27
2019-02-20T23:05:46.317Z,100456.75
2019-02-20T23:08:31.452Z,100455.06
2019-02-20T23:11:16.831Z,100457.44
2019-02-20T23:13:53.016Z,100457.75
2019-02-20T23:16:23.258Z,100455.02
2019-02-20T23:18:53.451Z,100452.81
2019-02-20T23:21:23.733Z,100453.50
2019-02-20T23:23:53.920Z,100455.06
2019-02-20T23:26:24.152Z,100453.06
2019-02-20T23:28:54.354Z,100454.51
2019-02-20T23:31:24.531Z,100448.64
2019-02-20T23:33:54.669Z,100448.30
2019-02-20T23:36:24.938Z,100449.64
2019-02-20T23:38:55.134Z,100441.56
2019-02-20T23:41:25.306Z,100435.02
2019-02-20T23:43:55.361Z,100434.88
2019-02-20T23:46:25.537Z,100435.70
2019-02-20T23:48:55.666Z,100436.36
2019-02-20T23:51:28.460Z,100435.23
2019-02-20T23:53:58.658Z,100427.94
2019-02-20T23:56:28.780Z,100424.59
2019-02-20T23:58:59.030Z,100424.12
